Time;durP1;ratioP1;P1;durP2;ratioP2;P2;SDS_P1;SDS_P2;PMS_P1;PMS_P2;Temp;Humidity;BMP_temperature;BMP_pressure;BME280_temperature;BME280_humidity;BME280_pressure;Samples;Min_cycle;Max_cycle;Signal;HPM_P1;HPM_P2
2023/10/14 00:00:47;;;;;;;9.15;4.47;;;;;;;;;;2077721;28;20116;-77
2023/10/14 00:02:13;;;;;;;10.63;4.55;;;;;;;;;;2076090;28;20091;-77
2023/10/14 00:03:35;;;;;;;9.30;4.30;;;;;;;;;;2074825;28;20030;-77
2023/10/14 00:04:56;;;;;;;5.45;3.97;;;;;;;;;;2072010;28;20030;-77
2023/10/14 00:06:18;;;;;;;10.40;4.15;;;;;;;;;;2078033;28;20355;-77
2023/10/14 00:07:39;;;;;;;10.43;4.70;;;;;;;;;;2074848;28;20607;-77
2023/10/14 00:09:01;;;;;;;6.13;4.97;;;;;;;;;;2079449;28;20037;-77
2023/10/14 00:10:22;;;;;;;;;;;;;;;;;;2073145;28;20448;-77
2023/10/14 00:11:46;;;;;;;6.55;4.22;;;;;;;;;;2087289;28;19964;-76
2023/10/14 00:13:12;;;;;;;5.75;4.30;;;;;;;;;;2085876;28;20128;-77
2023/10/14 00:14:33;;;;;;;6.82;4.57;;;;;;;;;;2075444;28;20211;-75
2023/10/14 00:15:54;;;;;;;8.32;4.97;;;;;;;;;;2079685;28;20504;-77
2023/10/14 00:17:18;;;;;;;5.07;3.90;;;;;;;;;;2082942;28;20079;-77
2023/10/14 00:18:42;;;;;;;6.72;3.90;;;;;;;;;;2077957;28;20026;-77
2023/10/14 00:20:04;;;;;;;8.73;4.57;;;;;;;;;;2083814;28;20037;-77
2023/10/14 00:21:26;;;;;;;5.18;4.22;;;;;;;;;;2081742;28;20033;-77
2023/10/14 00:22:46;;;;;;;7.50;4.90;;;;;;;;;;2081010;28;20033;-76
2023/10/14 00:24:07;;;;;;;7.07;4.10;;;;;;;;;;2093209;28;20045;-77
2023/10/14 00:25:28;;;;;;;9.23;5.53;;;;;;;;;;2089293;28;20040;-76
2023/10/14 00:26:49;;;;;;;8.60;4.10;;;;;;;;;;2087235;28;20037;-76
2023/10/14 00:28:13;;;;;;;8.43;5.10;;;;;;;;;;2086251;28;20116;-76
2023/10/14 00:29:35;;;;;;;5.43;4.50;;;;;;;;;;2081970;28;20111;-77
2023/10/14 00:30:56;;;;;;;6.85;4.85;;;;;;;;;;2080603;28;20526;-77
2023/10/14 00:32:17;;;;;;;6.10;3.90;;;;;;;;;;2078014;28;20455;-77
2023/10/14 00:33:38;;;;;;;8.77;4.38;;;;;;;;;;2085291;28;20055;-77
2023/10/14 00:34:59;;;;;;;3.95;3.35;;;;;;;;;;2083745;28;20021;-78
2023/10/14 00:36:20;;;;;;;8.60;4.43;;;;;;;;;;2080052;28;20040;-76
2023/10/14 00:37:41;;;;;;;4.57;4.10;;;;;;;;;;2082106;28;20037;-77
2023/10/14 00:39:13;;;;;;;4.53;3.58;;;;;;;;;;2089185;28;20134;-78
2023/10/14 00:40:37;;;;;;;7.32;4.00;;;;;;;;;;2084574;28;20026;-77
2023/10/14 00:41:59;;;;;;;8.55;4.40;;;;;;;;;;2084569;28;20025;-77
2023/10/14 00:43:20;;;;;;;5.15;3.50;;;;;;;;;;2081478;28;20120;-77
2023/10/14 00:44:41;;;;;;;5.72;3.70;;;;;;;;;;2082864;28;20022;-77
2023/10/14 00:46:06;;;;;;;5.43;4.30;;;;;;;;;;2081145;28;20088;-78
2023/10/14 00:47:27;;;;;;;4.82;3.47;;;;;;;;;;2078591;28;20033;-77
2023/10/14 00:48:48;;;;;;;6.25;3.75;;;;;;;;;;2070227;28;20046;-77
2023/10/14 00:51:49;;;;;;;8.18;3.85;;;;;;;;;;2079298;28;20396;-78
2023/10/14 00:53:10;;;;;;;4.55;3.67;;;;;;;;;;2082834;28;20045;-78
2023/10/14 00:55:54;;;;;;;6.88;4.32;;;;;;;;;;2079886;28;20033;-78
2023/10/14 00:58:43;;;;;;;5.90;3.90;;;;;;;;;;2079469;28;20531;-78
2023/10/14 01:00:09;;;;;;;8.05;4.30;;;;;;;;;;2082538;28;20037;-77
2023/10/14 01:01:31;;;;;;;8.75;4.18;;;;;;;;;;2081955;28;20091;-77
2023/10/14 01:02:52;;;;;;;7.30;4.70;;;;;;;;;;2084733;28;20385;-77
2023/10/14 01:04:19;;;;;;;10.07;4.82;;;;;;;;;;2092143;28;20036;-78
2023/10/14 01:05:40;;;;;;;4.40;4.00;;;;;;;;;;2074088;28;21159;-76
2023/10/14 01:08:29;;;;;;;5.18;4.63;;;;;;;;;;2083153;28;20048;-78
2023/10/14 01:09:53;;;;;;;5.68;4.90;;;;;;;;;;2074195;28;20034;-78
2023/10/14 01:11:17;;;;;;;6.03;4.80;;;;;;;;;;2077430;28;20036;-77
2023/10/14 01:12:40;;;;;;;6.60;4.70;;;;;;;;;;2082353;28;20033;-78
2023/10/14 01:14:05;;;;;;;8.88;5.03;;;;;;;;;;2087058;28;20093;-77
2023/10/14 01:15:31;;;;;;;7.32;4.15;;;;;;;;;;2083399;28;20033;-80
2023/10/14 01:16:52;;;;;;;7.15;4.60;;;;;;;;;;2082926;28;20075;-78
2023/10/14 01:18:14;;;;;;;9.68;5.28;;;;;;;;;;2079667;28;20443;-78
2023/10/14 01:19:35;;;;;;;;;;;;;;;;;;2070013;28;20030;-79
2023/10/14 01:20:58;;;;;;;5.97;4.70;;;;;;;;;;2091313;28;19908;-77
2023/10/14 01:22:22;;;;;;;7.78;4.70;;;;;;;;;;2085933;28;20534;-74
2023/10/14 01:23:50;;;;;;;11.35;5.05;;;;;;;;;;2086697;28;20037;-74
2023/10/14 01:25:14;;;;;;;7.13;4.32;;;;;;;;;;2085041;28;20025;-73
2023/10/14 01:26:35;;;;;;;8.75;4.95;;;;;;;;;;2075500;28;20030;-74
2023/10/14 01:27:59;;;;;;;11.48;4.38;;;;;;;;;;2065975;28;20147;-74
2023/10/14 01:29:31;;;;;;;8.32;4.65;;;;;;;;;;2076247;28;20485;-74
2023/10/14 01:31:10;;;;;;;9.40;4.95;;;;;;;;;;2073815;28;20034;-73
2023/10/14 01:32:49;;;;;;;11.32;4.68;;;;;;;;;;2079896;28;20029;-74
2023/10/14 01:34:28;;;;;;;13.02;5.28;;;;;;;;;;2085403;28;20036;-74
2023/10/14 01:35:51;;;;;;;21.23;7.03;;;;;;;;;;2075554;28;20315;-74
2023/10/14 01:37:19;;;;;;;9.18;4.75;;;;;;;;;;2080452;28;20056;-74
2023/10/14 01:38:48;;;;;;;12.80;4.70;;;;;;;;;;2081930;28;20025;-74
2023/10/14 01:41:57;;;;;;;12.35;5.13;;;;;;;;;;2071243;28;20041;-74
2023/10/14 01:43:24;;;;;;;7.97;4.15;;;;;;;;;;2071599;28;20030;-74
2023/10/14 01:44:47;;;;;;;9.45;4.20;;;;;;;;;;2080211;28;20052;-74
2023/10/14 01:46:11;;;;;;;14.43;4.25;;;;;;;;;;2080237;28;20385;-74
2023/10/14 01:47:43;;;;;;;11.20;4.72;;;;;;;;;;2073722;28;20041;-74
2023/10/14 01:49:10;;;;;;;;;;;;;;;;;;2073263;28;20026;-73
2023/10/14 01:50:32;;;;;;;8.57;4.55;;;;;;;;;;2076343;28;19912;-74
2023/10/14 01:51:56;;;;;;;11.68;5.10;;;;;;;;;;2084306;28;20029;-74
2023/10/14 01:53:18;;;;;;;13.48;5.10;;;;;;;;;;2066079;28;20027;-74
2023/10/14 01:54:39;;;;;;;11.73;4.82;;;;;;;;;;2070250;28;20034;-74
2023/10/14 01:56:01;;;;;;;12.63;4.93;;;;;;;;;;2080658;28;20444;-73
2023/10/14 01:57:24;;;;;;;13.00;4.85;;;;;;;;;;2085863;28;20396;-74
2023/10/14 01:58:45;;;;;;;16.77;5.68;;;;;;;;;;2075521;28;20018;-74
2023/10/14 02:00:36;;;;;;;15.07;5.30;;;;;;;;;;2081168;28;20088;-74
2023/10/14 02:01:54;;;;;;;15.18;5.50;;;;;;;;;;2078315;28;20038;-74
2023/10/14 02:03:16;;;;;;;9.70;4.68;;;;;;;;;;2089857;28;20033;-74
2023/10/14 02:04:37;;;;;;;20.58;6.10;;;;;;;;;;2089476;28;20036;-74
2023/10/14 02:05:58;;;;;;;9.77;4.65;;;;;;;;;;2082515;28;20037;-74
2023/10/14 02:07:19;;;;;;;13.88;4.68;;;;;;;;;;2089955;28;20040;-74
2023/10/14 02:08:40;;;;;;;11.90;4.78;;;;;;;;;;2083566;28;20373;-74
2023/10/14 02:10:03;;;;;;;13.77;4.60;;;;;;;;;;2089458;28;20032;-74
2023/10/14 02:11:24;;;;;;;13.80;5.57;;;;;;;;;;2083949;28;20425;-75
2023/10/14 02:12:45;;;;;;;21.67;5.25;;;;;;;;;;2081615;28;20026;-74
2023/10/14 02:14:08;;;;;;;13.05;4.43;;;;;;;;;;2082763;28;20029;-75
2023/10/14 02:15:29;;;;;;;11.75;4.97;;;;;;;;;;2083540;28;20040;-74
2023/10/14 02:16:51;;;;;;;17.25;5.82;;;;;;;;;;2071463;28;20038;-74
2023/10/14 02:18:23;;;;;;;10.13;4.93;;;;;;;;;;2071066;28;20030;-75
2023/10/14 02:19:49;;;;;;;10.80;4.95;;;;;;;;;;2090496;28;20029;-75
2023/10/14 02:21:16;;;;;;;13.65;5.03;;;;;;;;;;2090662;28;20045;-74
2023/10/14 02:22:38;;;;;;;13.80;4.63;;;;;;;;;;2082399;28;20026;-74
2023/10/14 02:24:00;;;;;;;13.95;5.10;;;;;;;;;;2079989;28;20026;-74
2023/10/14 02:25:22;;;;;;;10.25;4.07;;;;;;;;;;2076241;28;20032;-74
2023/10/14 02:26:43;;;;;;;;;;;;;;;;;;2060981;28;20053;-74
2023/10/14 02:28:06;;;;;;;13.48;4.63;;;;;;;;;;2076722;28;19909;-74
2023/10/14 02:29:27;;;;;;;10.48;4.63;;;;;;;;;;2074590;28;20042;-74
2023/10/14 02:30:51;;;;;;;16.08;4.35;;;;;;;;;;2074411;28;20126;-75
2023/10/14 02:32:13;;;;;;;16.05;5.40;;;;;;;;;;2071496;28;20049;-78
2023/10/14 02:33:34;;;;;;;17.98;5.15;;;;;;;;;;2070027;28;20025;-78
2023/10/14 02:34:56;;;;;;;17.08;5.55;;;;;;;;;;2070271;28;20547;-78
2023/10/14 02:36:17;;;;;;;14.88;5.40;;;;;;;;;;2070758;28;20046;-78
2023/10/14 02:37:38;;;;;;;16.70;5.40;;;;;;;;;;2064988;28;20042;-78
2023/10/14 02:38:59;;;;;;;16.63;5.15;;;;;;;;;;2065961;28;20422;-78
2023/10/14 02:40:24;;;;;;;13.02;5.28;;;;;;;;;;2079330;28;20055;-79
2023/10/14 02:41:58;;;;;;;10.07;4.45;;;;;;;;;;2075444;28;20038;-79
2023/10/14 02:43:21;;;;;;;13.88;4.65;;;;;;;;;;2061311;28;20513;-79
2023/10/14 02:44:46;;;;;;;14.13;4.55;;;;;;;;;;2079649;28;20041;-78
2023/10/14 02:46:10;;;;;;;10.75;4.70;;;;;;;;;;2067912;28;20035;-78
2023/10/14 02:47:37;;;;;;;9.05;4.63;;;;;;;;;;2076869;28;20037;-79
2023/10/14 02:49:03;;;;;;;10.23;4.72;;;;;;;;;;2069698;28;20046;-79
2023/10/14 02:50:24;;;;;;;10.05;5.22;;;;;;;;;;2063721;28;20054;-78
2023/10/14 02:51:45;;;;;;;14.75;4.88;;;;;;;;;;2065224;28;20037;-79
2023/10/14 02:53:09;;;;;;;9.55;4.72;;;;;;;;;;2065215;28;20037;-79
2023/10/14 02:54:34;;;;;;;17.20;4.63;;;;;;;;;;2065237;28;20034;-79
2023/10/14 02:56:04;;;;;;;12.27;5.28;;;;;;;;;;2077855;28;20428;-78
2023/10/14 02:57:26;;;;;;;13.52;5.13;;;;;;;;;;2066983;28;20030;-79
2023/10/14 02:58:47;;;;;;;8.63;4.40;;;;;;;;;;2071368;28;20022;-78
2023/10/14 03:00:11;;;;;;;13.00;5.32;;;;;;;;;;2071442;28;20033;-78
2023/10/14 03:01:33;;;;;;;11.60;4.68;;;;;;;;;;2078712;28;20030;-78
2023/10/14 03:03:02;;;;;;;13.63;4.68;;;;;;;;;;2075412;28;20033;-79
2023/10/14 03:04:24;;;;;;;11.20;4.63;;;;;;;;;;2065946;28;20385;-78
2023/10/14 03:05:53;;;;;;;11.70;4.30;;;;;;;;;;2063312;28;20023;-79
2023/10/14 03:08:57;;;;;;;11.88;5.25;;;;;;;;;;2065579;28;20270;-78
2023/10/14 03:11:39;;;;;;;11.18;5.35;;;;;;;;;;2068664;28;20347;-78
2023/10/14 03:13:00;;;;;;;13.43;5.07;;;;;;;;;;2069125;28;20038;-79
2023/10/14 03:14:21;;;;;;;16.87;6.07;;;;;;;;;;2067788;28;20034;-78
2023/10/14 03:15:44;;;;;;;13.40;5.85;;;;;;;;;;2066836;28;20049;-78
2023/10/14 03:17:05;;;;;;;16.20;6.25;;;;;;;;;;2064512;28;20056;-78
2023/10/14 03:18:37;;;;;;;14.02;5.82;;;;;;;;;;2064912;28;20023;-78
2023/10/14 03:20:08;;;;;;;13.00;5.22;;;;;;;;;;2066868;28;20097;-79
2023/10/14 03:21:30;;;;;;;12.43;5.63;;;;;;;;;;2066187;28;20042;-78
2023/10/14 03:22:53;;;;;;;13.65;5.60;;;;;;;;;;2068371;28;20105;-78
2023/10/14 03:24:17;;;;;;;10.70;5.32;;;;;;;;;;2069306;28;20026;-78
2023/10/14 03:25:38;;;;;;;13.63;5.93;;;;;;;;;;2065648;28;20030;-78
2023/10/14 03:27:04;;;;;;;11.35;5.07;;;;;;;;;;2069955;28;20065;-79
2023/10/14 03:28:27;;;;;;;10.60;6.00;;;;;;;;;;2081728;28;20033;-79
2023/10/14 03:29:54;;;;;;;;;;;;;;;;;;2072867;28;20045;-78
2023/10/14 03:31:17;;;;;;;10.93;4.68;;;;;;;;;;2073447;28;19909;-79
2023/10/14 03:32:38;;;;;;;11.75;5.40;;;;;;;;;;2068999;28;20538;-79
2023/10/14 03:33:59;;;;;;;15.60;5.35;;;;;;;;;;2068554;28;20030;-78
2023/10/14 03:35:20;;;;;;;19.73;5.63;;;;;;;;;;2077989;28;20029;-78
2023/10/14 03:36:43;;;;;;;11.90;4.82;;;;;;;;;;2078353;28;20060;-79
2023/10/14 03:40:05;;;;;;;13.77;4.93;;;;;;;;;;2082794;28;20033;-79
2023/10/14 03:41:37;;;;;;;18.80;5.97;;;;;;;;;;2083101;28;20033;-79
2023/10/14 03:43:09;;;;;;;14.07;6.25;;;;;;;;;;2082864;28;20078;-80
2023/10/14 03:44:29;;;;;;;10.48;5.18;;;;;;;;;;2084807;28;20038;-80
2023/10/14 03:45:57;;;;;;;13.00;5.43;;;;;;;;;;2080456;28;20025;-79
2023/10/14 03:47:19;;;;;;;14.27;5.18;;;;;;;;;;2084035;28;20050;-79
2023/10/14 03:48:45;;;;;;;10.73;5.10;;;;;;;;;;2079442;28;20030;-79
2023/10/14 03:50:06;;;;;;;12.25;5.20;;;;;;;;;;2071795;28;20033;-80
2023/10/14 03:51:27;;;;;;;13.95;4.88;;;;;;;;;;2074521;28;20152;-79
2023/10/14 03:52:48;;;;;;;11.32;5.00;;;;;;;;;;2074723;28;20030;-79
2023/10/14 03:54:09;;;;;;;15.05;5.82;;;;;;;;;;2073401;28;20402;-79
2023/10/14 03:55:30;;;;;;;16.45;6.00;;;;;;;;;;2075229;28;20037;-79
2023/10/14 03:56:51;;;;;;;14.47;4.87;;;;;;;;;;2074385;28;20045;-80
2023/10/14 03:58:12;;;;;;;10.68;5.25;;;;;;;;;;2074341;28;20833;-80
2023/10/14 03:59:33;;;;;;;14.32;5.05;;;;;;;;;;2060752;28;20027;-80
2023/10/14 04:00:56;;;;;;;10.68;5.40;;;;;;;;;;2076366;28;20021;-79
2023/10/14 04:02:25;;;;;;;13.05;5.30;;;;;;;;;;2076843;28;20022;-80
2023/10/14 04:03:51;;;;;;;11.50;4.93;;;;;;;;;;2081410;28;20040;-78
2023/10/14 04:05:12;;;;;;;11.00;6.22;;;;;;;;;;2075707;28;20085;-79
2023/10/14 04:06:34;;;;;;;15.05;5.80;;;;;;;;;;2073516;28;20050;-80
2023/10/14 04:07:55;;;;;;;15.18;5.95;;;;;;;;;;2073234;28;20397;-79
2023/10/14 04:09:22;;;;;;;18.90;7.30;;;;;;;;;;2080328;28;20040;-79
2023/10/14 04:10:46;;;;;;;13.15;6.22;;;;;;;;;;2070675;28;20097;-79
2023/10/14 04:12:53;;;;;;;17.50;6.05;;;;;;;;;;2073555;28;20037;-80
2023/10/14 04:13:58;;;;;;;14.23;5.35;;;;;;;;;;2073346;28;20026;-80
2023/10/14 04:17:00;;;;;;;17.25;5.72;;;;;;;;;;2071352;28;20099;-79
2023/10/14 04:18:24;;;;;;;7.70;5.40;;;;;;;;;;2066240;28;20030;-81
2023/10/14 04:19:47;;;;;;;11.32;5.40;;;;;;;;;;2077703;28;20045;-79
2023/10/14 04:21:15;;;;;;;12.38;5.47;;;;;;;;;;2081721;28;20029;-79
2023/10/14 04:22:39;;;;;;;11.85;5.85;;;;;;;;;;2067113;28;20038;-79
2023/10/14 04:24:08;;;;;;;18.98;6.47;;;;;;;;;;2071276;28;20034;-79
2023/10/14 04:25:56;;;;;;;16.17;6.00;;;;;;;;;;2072616;28;20029;-79
2023/10/14 04:27:22;;;;;;;15.35;5.88;;;;;;;;;;2063595;28;20081;-79
2023/10/14 04:28:58;;;;;;;17.02;6.10;;;;;;;;;;2076702;28;20413;-79
2023/10/14 04:30:38;;;;;;;14.23;5.38;;;;;;;;;;2065926;28;20034;-79
2023/10/14 04:32:07;;;;;;;10.68;5.38;;;;;;;;;;2075460;28;20034;-79
2023/10/14 04:33:37;;;;;;;15.65;5.90;;;;;;;;;;2073495;28;20029;-78
2023/10/14 04:35:05;;;;;;;14.45;6.05;;;;;;;;;;2067919;28;20034;-80
2023/10/14 04:36:45;;;;;;;15.73;7.03;;;;;;;;;;2070364;28;20037;-78
2023/10/14 04:38:17;;;;;;;14.52;6.47;;;;;;;;;;2077400;28;20025;-78
2023/10/14 04:39:42;;;;;;;15.40;5.75;;;;;;;;;;2078242;28;20438;-79
2023/10/14 04:41:24;;;;;;;13.65;6.28;;;;;;;;;;2072548;28;20026;-80
2023/10/14 04:42:45;;;;;;;13.15;6.55;;;;;;;;;;2070937;28;20046;-79
2023/10/14 04:44:11;;;;;;;13.20;6.10;;;;;;;;;;2064856;28;20050;-78
2023/10/14 04:45:32;;;;;;;13.50;6.70;;;;;;;;;;2070576;28;20489;-79
2023/10/14 04:47:01;;;;;;;23.15;6.20;;;;;;;;;;2085087;28;20049;-80
2023/10/14 04:48:35;;;;;;;11.45;6.22;;;;;;;;;;2080164;28;20041;-80
2023/10/14 04:49:57;;;;;;;14.68;6.20;;;;;;;;;;2075824;28;20038;-79
2023/10/14 04:51:21;;;;;;;12.07;5.75;;;;;;;;;;2082693;28;20420;-79
2023/10/14 04:52:44;;;;;;;16.15;5.93;;;;;;;;;;2084920;28;20044;-79
2023/10/14 04:54:09;;;;;;;16.08;6.68;;;;;;;;;;2082427;28;20408;-79
2023/10/14 04:55:32;;;;;;;34.25;7.03;;;;;;;;;;2089287;28;20025;-79
2023/10/14 04:56:57;;;;;;;9.48;5.22;;;;;;;;;;2079543;28;20485;-79
2023/10/14 04:58:24;;;;;;;11.35;5.50;;;;;;;;;;2075530;28;20703;-79
2023/10/14 04:59:45;;;;;;;10.90;5.18;;;;;;;;;;2075002;28;20076;-79
2023/10/14 05:01:09;;;;;;;11.18;5.22;;;;;;;;;;2070807;28;20482;-79
2023/10/14 05:02:31;;;;;;;12.07;6.35;;;;;;;;;;2073885;28;20500;-78
2023/10/14 05:03:57;;;;;;;16.38;6.75;;;;;;;;;;2077095;28;20030;-79
2023/10/14 05:05:19;;;;;;;14.27;6.05;;;;;;;;;;2065706;28;20035;-78
2023/10/14 05:06:41;;;;;;;15.07;6.47;;;;;;;;;;2071591;28;20041;-79
2023/10/14 05:08:05;;;;;;;11.07;5.68;;;;;;;;;;2085610;28;21404;-79
2023/10/14 05:09:39;;;;;;;12.10;6.40;;;;;;;;;;2077411;28;20038;-79
2023/10/14 05:11:00;;;;;;;17.02;6.45;;;;;;;;;;2064130;28;20041;-78
2023/10/14 05:12:24;;;;;;;14.93;6.07;;;;;;;;;;2078446;28;20091;-78
2023/10/14 05:13:53;;;;;;;15.73;6.10;;;;;;;;;;2078626;28;20109;-78
2023/10/14 05:15:20;;;;;;;20.33;6.50;;;;;;;;;;2072665;28;20030;-78
2023/10/14 05:18:35;;;;;;;15.50;6.68;;;;;;;;;;2062831;28;20041;-79
2023/10/14 05:19:58;;;;;;;12.05;5.70;;;;;;;;;;2085914;28;20451;-78
2023/10/14 05:21:35;;;;;;;11.07;5.32;;;;;;;;;;2081970;28;20492;-78
2023/10/14 05:22:56;;;;;;;17.30;5.95;;;;;;;;;;2081045;28;20106;-78
2023/10/14 05:24:17;;;;;;;14.35;5.97;;;;;;;;;;2082802;28;20080;-78
2023/10/14 05:25:39;;;;;;;12.70;6.20;;;;;;;;;;2080519;28;20037;-78
2023/10/14 05:27:00;;;;;;;13.15;5.47;;;;;;;;;;2082541;28;20562;-78
2023/10/14 05:28:22;;;;;;;14.77;5.57;;;;;;;;;;2081036;28;20033;-78
2023/10/14 05:29:50;;;;;;;13.63;5.95;;;;;;;;;;2070906;28;20095;-78
2023/10/14 05:31:13;;;;;;;14.02;6.30;;;;;;;;;;2077635;28;20041;-78
2023/10/14 05:32:36;;;;;;;16.75;6.53;;;;;;;;;;2080081;28;20128;-79
2023/10/14 05:33:56;;;;;;;14.90;6.30;;;;;;;;;;2081777;28;20048;-78
2023/10/14 05:35:17;;;;;;;14.25;5.53;;;;;;;;;;2074805;28;20021;-78
2023/10/14 05:36:38;;;;;;;11.80;6.32;;;;;;;;;;2073216;28;20453;-78
2023/10/14 05:37:59;;;;;;;18.40;6.30;;;;;;;;;;2068578;28;20030;-78
2023/10/14 05:39:20;;;;;;;15.02;6.38;;;;;;;;;;2081591;28;20033;-77
2023/10/14 05:40:41;;;;;;;11.43;5.38;;;;;;;;;;2073539;28;20030;-78
2023/10/14 05:42:04;;;;;;;19.77;6.78;;;;;;;;;;2075609;28;20034;-78
2023/10/14 05:43:25;;;;;;;21.55;8.23;;;;;;;;;;2072615;28;20034;-78
2023/10/14 05:44:47;;;;;;;14.20;6.22;;;;;;;;;;2073954;28;20030;-78
2023/10/14 05:46:12;;;;;;;;;;;;;;;;;;2074065;28;20451;-79
2023/10/14 05:47:33;;;;;;;12.35;5.90;;;;;;;;;;2080414;28;19927;-78
2023/10/14 05:48:54;;;;;;;16.65;6.22;;;;;;;;;;2074869;28;20429;-79
2023/10/14 05:50:15;;;;;;;20.88;6.80;;;;;;;;;;2071998;28;20440;-78
2023/10/14 05:51:36;;;;;;;15.95;5.75;;;;;;;;;;2072442;28;20441;-78
2023/10/14 05:52:59;;;;;;;15.32;6.10;;;;;;;;;;2073838;28;20080;-78
2023/10/14 05:54:22;;;;;;;11.82;6.18;;;;;;;;;;2080980;28;20034;-78
2023/10/14 05:55:47;;;;;;;13.85;5.82;;;;;;;;;;2075009;28;20032;-78
2023/10/14 05:57:10;;;;;;;13.55;6.47;;;;;;;;;;2069841;28;20076;-78
2023/10/14 05:58:31;;;;;;;15.80;6.22;;;;;;;;;;2072712;28;20037;-79
2023/10/14 05:59:52;;;;;;;15.98;5.95;;;;;;;;;;2072577;28;20033;-77
2023/10/14 06:01:13;;;;;;;15.88;6.45;;;;;;;;;;2073122;28;20559;-77
2023/10/14 06:02:34;;;;;;;24.20;6.90;;;;;;;;;;2074556;28;20061;-78
2023/10/14 06:03:56;;;;;;;17.48;6.05;;;;;;;;;;2064366;28;20035;-79
2023/10/14 06:05:17;;;;;;;18.88;6.65;;;;;;;;;;2068550;28;20026;-78
2023/10/14 06:06:37;;;;;;;14.90;6.25;;;;;;;;;;2067840;28;20076;-78
2023/10/14 06:08:05;;;;;;;16.73;5.57;;;;;;;;;;2071638;28;20045;-78
2023/10/14 06:09:26;;;;;;;16.30;6.05;;;;;;;;;;2073400;28;20026;-78
2023/10/14 06:10:47;;;;;;;11.50;5.68;;;;;;;;;;2073410;28;20489;-77
2023/10/14 06:12:12;;;;;;;14.00;5.63;;;;;;;;;;2073105;28;20129;-78
2023/10/14 06:13:33;;;;;;;16.95;5.88;;;;;;;;;;2067012;28;20037;-78
2023/10/14 06:14:54;;;;;;;17.98;7.57;;;;;;;;;;2070818;28;20448;-77
2023/10/14 06:16:15;;;;;;;13.90;5.60;;;;;;;;;;2074596;28;20037;-77
2023/10/14 06:17:38;;;;;;;9.00;5.30;;;;;;;;;;2081187;28;20034;-76
2023/10/14 06:19:00;;;;;;;14.50;6.35;;;;;;;;;;2073229;28;20426;-78
2023/10/14 06:20:22;;;;;;;13.30;6.05;;;;;;;;;;2080491;28;20026;-78
2023/10/14 06:21:44;;;;;;;19.08;6.57;;;;;;;;;;2074803;28;20520;-77
2023/10/14 06:23:08;;;;;;;15.20;5.82;;;;;;;;;;2063179;28;20035;-78
2023/10/14 06:24:29;;;;;;;12.80;5.95;;;;;;;;;;2069141;28;20046;-77
2023/10/14 06:25:50;;;;;;;24.77;7.43;;;;;;;;;;2080523;28;20447;-76
2023/10/14 06:27:20;;;;;;;13.73;6.28;;;;;;;;;;2073713;28;20529;-78
2023/10/14 06:28:42;;;;;;;14.68;6.00;;;;;;;;;;2076942;28;20037;-77
2023/10/14 06:30:03;;;;;;;11.32;6.65;;;;;;;;;;2073788;28;20038;-76
2023/10/14 06:31:24;;;;;;;16.52;6.25;;;;;;;;;;2071189;28;20084;-77
2023/10/14 06:32:47;;;;;;;13.43;6.03;;;;;;;;;;2074708;28;20062;-78
2023/10/14 06:34:11;;;;;;;14.90;6.07;;;;;;;;;;2071914;28;20397;-78
2023/10/14 06:35:33;;;;;;;16.90;6.65;;;;;;;;;;2070602;28;20030;-77
2023/10/14 06:36:55;;;;;;;15.23;6.45;;;;;;;;;;2075638;28;20104;-79
2023/10/14 06:38:19;;;;;;;14.05;5.95;;;;;;;;;;2086535;28;20025;-78
2023/10/14 06:39:41;;;;;;;13.85;5.55;;;;;;;;;;2082656;28;20033;-78
2023/10/14 06:41:02;;;;;;;9.15;5.75;;;;;;;;;;2080592;28;20033;-78
2023/10/14 06:42:23;;;;;;;18.98;6.57;;;;;;;;;;2092989;28;20049;-78
2023/10/14 06:43:47;;;;;;;16.48;6.38;;;;;;;;;;2086792;28;20029;-78
2023/10/14 06:45:08;;;;;;;13.38;6.78;;;;;;;;;;2088498;28;20028;-78
2023/10/14 06:46:28;;;;;;;13.32;5.95;;;;;;;;;;2075958;28;20065;-79
2023/10/14 06:47:50;;;;;;;12.88;6.50;;;;;;;;;;2079758;28;20503;-78
2023/10/14 06:49:16;;;;;;;13.30;6.22;;;;;;;;;;2088629;28;20063;-79
2023/10/14 06:50:38;;;;;;;11.93;6.18;;;;;;;;;;2081384;28;20030;-79
2023/10/14 06:51:59;;;;;;;17.52;6.55;;;;;;;;;;2081736;28;20026;-78
2023/10/14 06:53:19;;;;;;;13.25;5.65;;;;;;;;;;2086209;28;20033;-76
2023/10/14 06:54:41;;;;;;;14.70;6.30;;;;;;;;;;2081438;28;20315;-78
2023/10/14 06:56:02;;;;;;;13.18;6.13;;;;;;;;;;2080606;28;20048;-77
2023/10/14 06:57:23;;;;;;;12.23;5.97;;;;;;;;;;2082952;28;20509;-78
2023/10/14 06:58:44;;;;;;;14.35;5.60;;;;;;;;;;2092216;28;20037;-78
2023/10/14 07:00:12;;;;;;;12.02;5.78;;;;;;;;;;2081407;28;20026;-78
2023/10/14 07:01:33;;;;;;;15.65;6.50;;;;;;;;;;2073227;28;20434;-78
2023/10/14 07:02:57;;;;;;;9.70;5.60;;;;;;;;;;2077087;28;20606;-76
2023/10/14 07:04:18;;;;;;;16.10;6.88;;;;;;;;;;2079905;28;20037;-77
2023/10/14 07:05:56;;;;;;;18.13;6.40;;;;;;;;;;2081768;28;20034;-78
2023/10/14 07:07:19;;;;;;;18.80;6.00;;;;;;;;;;2081348;28;20041;-78
2023/10/14 07:08:40;;;;;;;14.93;5.97;;;;;;;;;;2087053;28;20481;-79
2023/10/14 07:10:02;;;;;;;17.17;7.00;;;;;;;;;;2078756;28;20148;-77
2023/10/14 07:11:23;;;;;;;15.38;5.22;;;;;;;;;;2090229;28;20072;-78
2023/10/14 07:12:44;;;;;;;16.77;6.03;;;;;;;;;;2081687;28;20033;-78
2023/10/14 07:14:05;;;;;;;15.52;6.43;;;;;;;;;;2079199;28;20079;-77
2023/10/14 07:15:27;;;;;;;11.00;6.28;;;;;;;;;;2075269;28;20038;-79
2023/10/14 07:16:50;;;;;;;12.00;6.13;;;;;;;;;;2083022;28;20124;-78
2023/10/14 07:18:14;;;;;;;21.58;7.10;;;;;;;;;;2080203;28;20037;-77
2023/10/14 07:19:35;;;;;;;17.60;6.35;;;;;;;;;;2090148;28;20092;-78
2023/10/14 07:20:59;;;;;;;12.48;5.93;;;;;;;;;;2082735;28;20041;-79
2023/10/14 07:22:20;;;;;;;17.00;6.85;;;;;;;;;;2088419;28;20087;-79
2023/10/14 07:23:41;;;;;;;18.98;6.18;;;;;;;;;;2094577;28;20074;-78
2023/10/14 07:25:03;;;;;;;12.80;6.40;;;;;;;;;;2084677;28;20329;-78
2023/10/14 07:26:29;;;;;;;10.75;5.68;;;;;;;;;;2083189;28;20029;-78
2023/10/14 07:27:51;;;;;;;11.10;5.75;;;;;;;;;;2072695;28;20073;-79
2023/10/14 07:29:12;;;;;;;;;;;;;;;;;;2080215;28;20547;-79
2023/10/14 07:30:36;;;;;;;19.50;6.35;;;;;;;;;;2072036;28;19917;-79
2023/10/14 07:31:56;;;;;;;13.10;5.88;;;;;;;;;;2075417;28;20040;-80
2023/10/14 07:33:19;;;;;;;18.13;6.57;;;;;;;;;;2077377;28;20029;-79
2023/10/14 07:34:41;;;;;;;12.60;5.32;;;;;;;;;;2074083;28;20034;-79
2023/10/14 07:36:06;;;;;;;13.40;5.82;;;;;;;;;;2075249;28;20025;-78
2023/10/14 07:37:27;;;;;;;17.85;6.72;;;;;;;;;;2080545;28;20237;-79
2023/10/14 07:38:48;;;;;;;14.48;6.57;;;;;;;;;;2075232;28;20025;-79
2023/10/14 07:40:11;;;;;;;13.10;5.30;;;;;;;;;;2078458;28;20037;-78
2023/10/14 07:41:32;;;;;;;16.75;5.30;;;;;;;;;;2083953;28;20049;-78
2023/10/14 07:42:54;;;;;;;14.17;5.70;;;;;;;;;;2076673;28;20097;-79
2023/10/14 07:44:15;;;;;;;17.40;6.38;;;;;;;;;;2081706;28;20073;-79
2023/10/14 07:45:42;;;;;;;14.00;6.47;;;;;;;;;;2074977;28;20064;-80
2023/10/14 07:47:05;;;;;;;17.60;6.95;;;;;;;;;;2077435;28;20057;-81
2023/10/14 07:48:26;;;;;;;11.65;6.40;;;;;;;;;;2065593;28;20030;-79
2023/10/14 07:49:47;;;;;;;14.63;6.68;;;;;;;;;;2070855;28;20370;-76
2023/10/14 07:51:08;;;;;;;15.35;5.90;;;;;;;;;;2075095;28;20335;-79
2023/10/14 07:52:31;;;;;;;13.57;5.65;;;;;;;;;;2072142;28;20053;-79
2023/10/14 07:53:52;;;;;;;20.45;6.07;;;;;;;;;;2072947;28;20034;-78
2023/10/14 07:55:19;;;;;;;12.32;5.20;;;;;;;;;;2075736;28;20037;-79
2023/10/14 07:56:46;;;;;;;10.77;5.05;;;;;;;;;;2077121;28;20037;-79
2023/10/14 07:58:10;;;;;;;13.05;4.18;;;;;;;;;;2080881;28;20147;-78
2023/10/14 07:59:34;;;;;;;12.60;5.22;;;;;;;;;;2082944;28;20386;-79
2023/10/14 08:00:55;;;;;;;15.38;6.32;;;;;;;;;;2081843;28;20392;-80
2023/10/14 08:02:18;;;;;;;10.60;5.50;;;;;;;;;;2082868;28;20033;-78
2023/10/14 08:03:39;;;;;;;19.10;6.13;;;;;;;;;;2082190;28;20419;-77
2023/10/14 08:05:00;;;;;;;16.88;5.85;;;;;;;;;;2085729;28;20033;-78
2023/10/14 08:06:21;;;;;;;13.32;5.57;;;;;;;;;;2085308;28;20444;-79
2023/10/14 08:07:42;;;;;;;11.77;4.80;;;;;;;;;;2090246;28;20045;-79
2023/10/14 08:09:03;;;;;;;14.45;5.13;;;;;;;;;;2082025;28;20396;-79
2023/10/14 08:10:24;;;;;;;11.60;5.10;;;;;;;;;;2091577;28;20082;-79
2023/10/14 08:11:45;;;;;;;14.35;5.47;;;;;;;;;;2094802;28;20029;-78
2023/10/14 08:13:07;;;;;;;12.70;5.30;;;;;;;;;;2085929;28;20091;-80
2023/10/14 08:14:30;;;;;;;20.02;5.80;;;;;;;;;;2085152;28;20052;-79
2023/10/14 08:15:52;;;;;;;13.07;4.95;;;;;;;;;;2087925;28;20425;-80
2023/10/14 08:17:13;;;;;;;15.35;5.20;;;;;;;;;;2082069;28;20041;-80
2023/10/14 08:18:34;;;;;;;15.15;4.88;;;;;;;;;;2089294;28;20433;-81
2023/10/14 08:19:55;;;;;;;10.45;5.30;;;;;;;;;;2085054;28;20029;-80
2023/10/14 08:21:16;;;;;;;16.60;5.97;;;;;;;;;;2088614;28;20112;-79
2023/10/14 08:22:37;;;;;;;14.80;5.85;;;;;;;;;;2086223;28;20029;-80
2023/10/14 08:23:58;;;;;;;12.48;4.32;;;;;;;;;;2086648;28;20134;-79
2023/10/14 08:25:19;;;;;;;13.35;4.55;;;;;;;;;;2091781;28;20025;-79
2023/10/14 08:26:40;;;;;;;12.98;5.35;;;;;;;;;;2083660;28;20026;-79
2023/10/14 08:28:05;;;;;;;11.73;4.70;;;;;;;;;;2085242;28;20037;-79
2023/10/14 08:29:26;;;;;;;18.20;5.43;;;;;;;;;;2090339;28;20068;-80
2023/10/14 08:30:50;;;;;;;12.45;4.53;;;;;;;;;;2081492;28;20041;-81
2023/10/14 08:32:11;;;;;;;15.82;4.90;;;;;;;;;;2083581;28;20041;-80
2023/10/14 08:33:32;;;;;;;12.60;4.93;;;;;;;;;;2073544;28;20033;-79